Main page
METAR-TAF:

METAR-TAF

Airports :

Cherif Al Idrissi Airport

Al Hoceima, Morocco

latitude: 35-11N, longitude: 003-51W, elevation: 27 m

Current weather observation

The report was made 53 minutes ago, at 12:00 UTC
Wind 10 kt from the North
Temperature 27°C
Humidity 51%
Pressure 1017 hPa
Visibility 10 km or more
no clouds below 1500 m and no cumulonimbus

METAR: GMTA 211200Z 36010KT CAVOK 27/16 Q1017 NOSIG

Time: 13:53 (12:53 UTC)

Forecast

The report was made 1 hour and 53 minutes ago, at 11:00 UTC
Forecast valid from 21 at 12 UTC to 22 at 18 UTC
Wind 9 kt from the North
Visibility 10 km or more
no clouds below 1500 m and no cumulonimbus

TAF: GMTA 211100Z 2112/2218 36009KT CAVOK

Weather observations and forecasts of more than 4000 airports (METAR and TAF reports).

The available stations are represented by yellow and red dots on the map.

Hover mouse over dot to see the name of the station.

Then click to see weather observations and forecasts.

To change the map : click on the green buttons with a black cross to zoom in, on the green button with a dash to zoom out, or on the green arrows for adjacent maps.


METAR-TAF: